Time;durP1;ratioP1;P1;durP2;ratioP2;P2;SDS_P1;SDS_P2;PMS_P1;PMS_P2;Temp;Humidity;BMP_temperature;BMP_pressure;BME280_temperature;BME280_humidity;BME280_pressure;Samples;Min_cycle;Max_cycle;Signal;HPM_P1;HPM_P2
2023/05/12 00:01:39;;;;;;;;;;;358.50;2329.60;;;;;;5030204;28;19960;-74
2023/05/12 00:04:05;;;;;;;;;;;358.60;2329.60;;;;;;5016582;28;19905;-73
2023/05/12 00:06:30;;;;;;;;;;;358.60;2329.60;;;;;;5016463;28;19924;-73
2023/05/12 00:08:56;;;;;;;;;;;358.60;2329.60;;;;;;5016189;28;19905;-73
2023/05/12 00:11:22;;;;;;;;;;;358.70;2329.60;;;;;;5016302;28;20358;-75
2023/05/12 00:13:48;;;;;;;;;;;358.70;2329.60;;;;;;5016030;28;19905;-72
2023/05/12 00:16:16;;;;;;;;;;;358.70;2329.60;;;;;;5016217;28;19905;-72
2023/05/12 00:18:41;;;;;;;;;;;358.70;2329.60;;;;;;5016229;28;20269;-73
2023/05/12 00:21:07;;;;;;;;;;;358.70;2329.60;;;;;;5015953;28;19912;-73
2023/05/12 00:23:33;;;;;;;;;;;358.70;2329.60;;;;;;5015972;28;19909;-80
2023/05/12 00:25:58;;;;;;;;;;;358.80;2329.60;;;;;;5016302;28;19917;-73
2023/05/12 00:28:24;;;;;;;;;;;358.80;2329.60;;;;;;5015888;28;19916;-72
2023/05/12 00:30:49;;;;;;;;;;;358.80;2329.60;;;;;;5015831;28;20368;-72
2023/05/12 00:33:16;;;;;;;;;;;358.80;2329.60;;;;;;5015874;28;19917;-73
2023/05/12 00:35:44;;;;;;;;;;;358.70;2329.60;;;;;;5015874;28;20353;-72
2023/05/12 00:38:09;;;;;;;;;;;358.80;2329.60;;;;;;5015830;28;19912;-80
2023/05/12 00:40:35;;;;;;;;;;;358.70;2329.60;;;;;;5014999;28;20276;-73
2023/05/12 00:43:00;;;;;;;;;;;358.80;2329.60;;;;;;5015588;28;20396;-73
2023/05/12 00:45:28;;;;;;;;;;;358.80;2329.60;;;;;;5015527;28;19913;-74
2023/05/12 00:47:54;;;;;;;;;;;358.70;2329.60;;;;;;5015565;28;20000;-73
2023/05/12 00:50:20;;;;;;;;;;;358.80;2329.60;;;;;;5015647;28;19944;-73
2023/05/12 00:52:45;;;;;;;;;;;358.80;2329.60;;;;;;5015179;28;19913;-73
2023/05/12 00:55:11;;;;;;;;;;;358.80;2329.60;;;;;;5015457;28;19914;-73
2023/05/12 00:57:37;;;;;;;;;;;358.80;2329.60;;;;;;5015408;28;19909;-72
2023/05/12 01:00:03;;;;;;;;;;;358.80;2329.60;;;;;;5015115;28;19905;-73
2023/05/12 01:02:29;;;;;;;;;;;358.80;2329.60;;;;;;5015338;28;19987;-74
2023/05/12 01:04:55;;;;;;;;;;;358.80;2329.60;;;;;;5015397;28;20364;-73
2023/05/12 01:07:21;;;;;;;;;;;358.80;2329.60;;;;;;5015205;28;20266;-73
2023/05/12 01:09:47;;;;;;;;;;;358.80;2329.60;;;;;;5015206;28;19905;-73
2023/05/12 01:12:12;;;;;;;;;;;358.80;2329.60;;;;;;5015236;28;19912;-76
2023/05/12 01:14:38;;;;;;;;;;;358.80;2329.60;;;;;;5013696;28;19905;-73
2023/05/12 01:17:07;;;;;;;;;;;358.80;2329.60;;;;;;5015026;28;20361;-72
2023/05/12 01:19:39;;;;;;;;;;;358.80;2329.60;;;;;;5017857;28;19968;-75
2023/05/12 01:22:05;;;;;;;;;;;358.80;2329.60;;;;;;5021360;28;20012;-73
2023/05/12 01:24:32;;;;;;;;;;;358.80;2329.60;;;;;;5019099;28;20369;-73
2023/05/12 01:26:59;;;;;;;;;;;358.80;2329.60;;;;;;5014970;28;19913;-73
2023/05/12 01:29:24;;;;;;;;;;;358.80;2329.60;;;;;;5014687;28;20342;-76
2023/05/12 01:31:50;;;;;;;;;;;358.90;2329.60;;;;;;5014758;28;19988;-72
2023/05/12 01:34:17;;;;;;;;;;;358.90;2329.60;;;;;;5014779;28;19905;-73
2023/05/12 01:36:43;;;;;;;;;;;358.90;2329.60;;;;;;5014772;28;19912;-73
2023/05/12 01:39:08;;;;;;;;;;;359.00;2329.60;;;;;;5014744;28;19906;-80
2023/05/12 01:41:34;;;;;;;;;;;359.00;2329.60;;;;;;5014740;28;19909;-72
2023/05/12 01:44:00;;;;;;;;;;;359.00;2329.60;;;;;;5014580;28;19948;-72
2023/05/12 01:46:26;;;;;;;;;;;359.00;2329.60;;;;;;5014388;28;19913;-72
2023/05/12 01:48:51;;;;;;;;;;;359.00;2329.60;;;;;;5014578;28;19906;-73
2023/05/12 01:51:17;;;;;;;;;;;359.00;2329.60;;;;;;5013925;28;20349;-75
2023/05/12 01:53:42;;;;;;;;;;;359.00;2329.60;;;;;;5013698;28;20278;-72
2023/05/12 01:56:08;;;;;;;;;;;359.00;2329.60;;;;;;5014376;28;19987;-72
2023/05/12 01:58:33;;;;;;;;;;;359.00;2329.60;;;;;;5014435;28;20033;-72
2023/05/12 02:00:59;;;;;;;;;;;359.00;2329.60;;;;;;5014029;28;19906;-73
2023/05/12 02:03:24;;;;;;;;;;;359.00;2329.60;;;;;;5014307;28;19905;-72
2023/05/12 02:05:50;;;;;;;;;;;359.00;2329.60;;;;;;5014216;28;20362;-73
2023/05/12 02:08:15;;;;;;;;;;;359.00;2329.60;;;;;;5014235;28;19956;-73
2023/05/12 02:10:41;;;;;;;;;;;359.00;2329.60;;;;;;5014237;28;20372;-72
2023/05/12 02:13:07;;;;;;;;;;;359.00;2329.60;;;;;;5014168;28;19905;-72
2023/05/12 02:15:33;;;;;;;;;;;359.00;2329.60;;;;;;5013946;28;19905;-72
2023/05/12 02:17:58;;;;;;;;;;;359.00;2329.60;;;;;;5014161;28;19905;-72
2023/05/12 02:20:24;;;;;;;;;;;359.00;2329.60;;;;;;5014133;28;19912;-73
2023/05/12 02:22:49;;;;;;;;;;;359.00;2329.60;;;;;;5013987;28;19932;-73
2023/05/12 02:25:15;;;;;;;;;;;359.00;2329.60;;;;;;5013991;28;19995;-73
2023/05/12 02:27:40;;;;;;;;;;;359.00;2329.60;;;;;;5013900;28;20348;-72
2023/05/12 02:30:06;;;;;;;;;;;359.00;2329.60;;;;;;5013878;28;19917;-72
2023/05/12 02:32:32;;;;;;;;;;;359.00;2329.60;;;;;;5013823;28;20376;-73
2023/05/12 02:34:58;;;;;;;;;;;359.00;2329.60;;;;;;5013965;28;20354;-73
2023/05/12 02:37:23;;;;;;;;;;;359.00;2329.60;;;;;;5013864;28;20000;-72
2023/05/12 02:39:49;;;;;;;;;;;359.00;2329.60;;;;;;5013903;28;19912;-76
2023/05/12 02:42:15;;;;;;;;;;;359.00;2329.60;;;;;;5013902;28;19913;-72
2023/05/12 02:44:40;;;;;;;;;;;359.00;2329.60;;;;;;5012679;28;19951;-72
2023/05/12 02:47:06;;;;;;;;;;;359.00;2329.60;;;;;;5013495;28;19914;-72
2023/05/12 02:49:31;;;;;;;;;;;359.00;2329.60;;;;;;5013837;28;20281;-73
2023/05/12 02:51:57;;;;;;;;;;;359.00;2329.60;;;;;;5013693;28;20272;-73
2023/05/12 02:54:22;;;;;;;;;;;359.00;2329.60;;;;;;5012621;28;20352;-72
2023/05/12 02:56:48;;;;;;;;;;;359.00;2329.60;;;;;;5013785;28;19906;-72
2023/05/12 02:59:14;;;;;;;;;;;359.00;2329.60;;;;;;5013771;28;19912;-74
2023/05/12 03:01:39;;;;;;;;;;;359.00;2329.60;;;;;;5026289;28;19904;-79
2023/05/12 03:04:05;;;;;;;;;;;359.00;2329.60;;;;;;5035018;28;19909;-72
2023/05/12 03:06:30;;;;;;;;;;;359.00;2329.60;;;;;;5036591;28;19967;-78
2023/05/12 03:08:56;;;;;;;;;;;359.00;2329.60;;;;;;5036586;28;19905;-73
2023/05/12 03:11:21;;;;;;;;;;;358.90;2329.60;;;;;;5036533;28;20284;-79
2023/05/12 03:13:47;;;;;;;;;;;358.90;2329.60;;;;;;5036470;28;19959;-73
2023/05/12 03:16:13;;;;;;;;;;;358.90;2329.60;;;;;;5036394;28;19912;-73
2023/05/12 03:18:38;;;;;;;;;;;358.80;2329.60;;;;;;5036554;28;19905;-73
2023/05/12 03:21:04;;;;;;;;;;;358.80;2329.60;;;;;;5036463;28;19905;-74
2023/05/12 03:23:30;;;;;;;;;;;358.80;2329.60;;;;;;5036173;28;19952;-73
2023/05/12 03:25:55;;;;;;;;;;;358.80;2304.00;;;;;;5036381;28;19916;-73
2023/05/12 03:28:23;;;;;;;;;;;358.80;2278.40;;;;;;5036335;28;19908;-75
2023/05/12 03:30:49;;;;;;;;;;;358.80;2329.60;;;;;;5036220;28;19909;-74
2023/05/12 03:33:14;;;;;;;;;;;358.80;2329.60;;;;;;5036031;28;19910;-73
2023/05/12 03:35:40;;;;;;;;;;;358.70;2304.00;;;;;;5036270;28;19905;-79
2023/05/12 03:38:05;;;;;;;;;;;358.70;2329.60;;;;;;5036312;28;20377;-80
2023/05/12 03:40:31;;;;;;;;;;;358.70;2329.60;;;;;;5036279;28;19905;-74
2023/05/12 03:42:57;;;;;;;;;;;358.70;2329.60;;;;;;5036023;28;19905;-73
2023/05/12 03:45:22;;;;;;;;;;;358.70;2329.60;;;;;;5036162;28;19912;-74
2023/05/12 03:47:48;;;;;;;;;;;358.70;2304.00;;;;;;5035850;28;20316;-79
2023/05/12 03:50:13;;;;;;;;;;;358.70;2304.00;;;;;;5035746;28;19943;-73
2023/05/12 03:52:40;;;;;;;;;;;358.70;2329.60;;;;;;5034715;28;19909;-73
2023/05/12 03:55:06;;;;;;;;;;;358.70;2304.00;;;;;;5035707;28;20344;-74
2023/05/12 03:57:31;;;;;;;;;;;358.70;2329.60;;;;;;5035667;28;19912;-73
2023/05/12 03:59:57;;;;;;;;;;;358.70;2329.60;;;;;;5035802;28;19974;-74
2023/05/12 04:02:22;;;;;;;;;;;358.70;2329.60;;;;;;5035604;28;19912;-73
2023/05/12 04:04:48;;;;;;;;;;;358.70;2329.60;;;;;;5035656;28;19905;-74
2023/05/12 04:07:13;;;;;;;;;;;358.80;2329.60;;;;;;5035476;28;20028;-73
2023/05/12 04:09:39;;;;;;;;;;;358.80;2329.60;;;;;;5035568;28;19909;-73
2023/05/12 04:12:05;;;;;;;;;;;358.70;2329.60;;;;;;5035570;28;20276;-73
2023/05/12 04:14:31;;;;;;;;;;;358.80;2329.60;;;;;;5034668;28;20272;-74
2023/05/12 04:16:57;;;;;;;;;;;358.80;2329.60;;;;;;5034935;28;19971;-73
2023/05/12 04:19:22;;;;;;;;;;;358.80;2329.60;;;;;;5035281;28;19911;-79
2023/05/12 04:21:48;;;;;;;;;;;358.80;2329.60;;;;;;5035545;28;19992;-73
2023/05/12 04:24:13;;;;;;;;;;;358.90;2329.60;;;;;;5034819;28;20000;-73
2023/05/12 04:26:39;;;;;;;;;;;358.90;2329.60;;;;;;5035104;28;19932;-73
2023/05/12 04:29:05;;;;;;;;;;;358.90;2329.60;;;;;;5035097;28;19952;-72
2023/05/12 04:31:30;;;;;;;;;;;358.90;2329.60;;;;;;5034968;28;20376;-79
2023/05/12 04:33:56;;;;;;;;;;;358.90;2329.60;;;;;;5035017;28;19912;-73
2023/05/12 04:36:21;;;;;;;;;;;358.80;2329.60;;;;;;5034921;28;19912;-74
2023/05/12 04:38:47;;;;;;;;;;;358.80;2329.60;;;;;;5034962;28;19912;-73
2023/05/12 04:41:13;;;;;;;;;;;358.80;2329.60;;;;;;5034912;28;19916;-73
2023/05/12 04:43:38;;;;;;;;;;;358.80;2329.60;;;;;;5034770;28;19943;-74
2023/05/12 04:46:04;;;;;;;;;;;358.80;2329.60;;;;;;5034864;28;20357;-73
2023/05/12 04:48:30;;;;;;;;;;;358.80;2329.60;;;;;;5034918;28;20373;-73
2023/05/12 04:50:57;;;;;;;;;;;358.80;2329.60;;;;;;5034723;28;19909;-74
2023/05/12 04:53:23;;;;;;;;;;;358.80;2329.60;;;;;;5034381;28;19913;-74
2023/05/12 04:55:49;;;;;;;;;;;358.80;2329.60;;;;;;5035172;28;20012;-73
2023/05/12 04:58:14;;;;;;;;;;;358.80;2329.60;;;;;;5039680;28;19932;-75
2023/05/12 05:00:40;;;;;;;;;;;358.80;2329.60;;;;;;5039290;28;19905;-75
2023/05/12 05:03:06;;;;;;;;;;;358.80;2329.60;;;;;;5034791;28;19915;-77
2023/05/12 05:05:31;;;;;;;;;;;358.80;2329.60;;;;;;5034552;28;20324;-76
2023/05/12 05:07:57;;;;;;;;;;;358.80;2329.60;;;;;;5034583;28;19913;-76
2023/05/12 05:10:22;;;;;;;;;;;358.80;2329.60;;;;;;5034472;28;20368;-77
2023/05/12 05:12:48;;;;;;;;;;;358.80;2329.60;;;;;;5033453;28;19905;-80
2023/05/12 05:15:14;;;;;;;;;;;358.80;2329.60;;;;;;5029594;28;19950;-77
2023/05/12 05:17:41;;;;;;;;;;;358.80;2329.60;;;;;;5026094;28;19905;-76
2023/05/12 05:20:07;;;;;;;;;;;358.90;2329.60;;;;;;5022569;28;19911;-75
2023/05/12 05:22:33;;;;;;;;;;;358.80;2329.60;;;;;;5022679;28;19909;-75
2023/05/12 05:24:59;;;;;;;;;;;358.80;2329.60;;;;;;5025090;28;20047;-75
2023/05/12 05:27:24;;;;;;;;;;;358.80;2329.60;;;;;;5029077;28;19919;-77
2023/05/12 05:29:50;;;;;;;;;;;358.80;2329.60;;;;;;5032591;28;19912;-74
2023/05/12 05:32:15;;;;;;;;;;;358.80;2329.60;;;;;;5029593;28;19921;-74
2023/05/12 05:34:41;;;;;;;;;;;358.70;2329.60;;;;;;5027458;28;19912;-77
2023/05/12 05:37:07;;;;;;;;;;;358.70;2329.60;;;;;;5027411;28;19912;-75
2023/05/12 05:39:32;;;;;;;;;;;358.70;2329.60;;;;;;5027976;28;19911;-75
2023/05/12 05:41:58;;;;;;;;;;;358.70;2329.60;;;;;;5029384;28;19959;-78
2023/05/12 05:44:23;;;;;;;;;;;358.70;2329.60;;;;;;5027848;28;19906;-76
2023/05/12 05:46:49;;;;;;;;;;;358.70;2329.60;;;;;;5031308;28;19913;-74
2023/05/12 05:49:15;;;;;;;;;;;358.70;2329.60;;;;;;5030691;28;19948;-73
2023/05/12 05:51:41;;;;;;;;;;;358.70;2329.60;;;;;;5024928;28;19909;-73
2023/05/12 05:54:06;;;;;;;;;;;358.70;2329.60;;;;;;5026206;28;20361;-74
2023/05/12 05:56:34;;;;;;;;;;;358.70;2278.40;;;;;;5022079;28;20327;-73
2023/05/12 05:59:02;;;;;;;;;;;358.70;2252.80;;;;;;5028207;28;19955;-72
2023/05/12 06:01:27;;;;;;;;;;;358.80;2252.80;;;;;;5028256;28;19958;-73
2023/05/12 06:03:53;;;;;;;;;;;358.80;2227.20;;;;;;5032950;28;19904;-73
2023/05/12 06:06:18;;;;;;;;;;;358.80;2227.20;;;;;;5028401;28;19913;-72
2023/05/12 06:08:44;;;;;;;;;;;358.80;2227.20;;;;;;5033101;28;20379;-72
2023/05/12 06:11:10;;;;;;;;;;;358.70;2227.20;;;;;;5029889;28;20369;-73
2023/05/12 06:13:36;;;;;;;;;;;358.80;2304.00;;;;;;5033957;28;19909;-74
2023/05/12 06:16:02;;;;;;;;;;;358.70;2176.00;;;;;;5033732;28;20242;-74
2023/05/12 06:18:27;;;;;;;;;;;358.70;2150.40;;;;;;5033989;28;20242;-74
2023/05/12 06:20:53;;;;;;;;;;;358.70;2150.40;;;;;;5033757;28;19905;-74
2023/05/12 06:23:18;;;;;;;;;;;358.80;2252.80;;;;;;5020554;28;20013;-74
2023/05/12 06:25:46;;;;;;;;;;;358.80;2150.40;;;;;;5033499;28;19913;-73
2023/05/12 06:28:12;;;;;;;;;;;358.80;2176.00;;;;;;5033506;28;19909;-78
2023/05/12 06:30:38;;;;;;;;;;;358.90;2227.20;;;;;;5033047;28;19982;-74
2023/05/12 06:33:04;;;;;;;;;;;358.80;2201.60;;;;;;5033420;28;19905;-73
2023/05/12 06:35:30;;;;;;;;;;;358.90;2227.20;;;;;;5033687;28;20424;-74
2023/05/12 06:37:55;;;;;;;;;;;358.90;2150.40;;;;;;5033805;28;20365;-76
2023/05/12 06:40:21;;;;;;;;;;;358.90;2150.40;;;;;;5037768;28;19905;-79
2023/05/12 06:42:46;;;;;;;;;;;359.00;2227.20;;;;;;5037611;28;20284;-73
2023/05/12 06:45:12;;;;;;;;;;;359.00;2176.00;;;;;;5037664;28;19951;-76
2023/05/12 06:47:38;;;;;;;;;;;359.00;2124.80;;;;;;5037433;28;19920;-74
2023/05/12 06:50:04;;;;;;;;;;;358.90;2099.20;;;;;;5037495;28;20315;-74
2023/05/12 06:52:29;;;;;;;;;;;358.90;2099.20;;;;;;5037154;28;19909;-79
2023/05/12 06:54:55;;;;;;;;;;;358.90;2073.60;;;;;;5037064;28;19921;-74
2023/05/12 06:57:20;;;;;;;;;;;359.00;2099.20;;;;;;5037175;28;19994;-75
2023/05/12 06:59:46;;;;;;;;;;;359.00;2099.20;;;;;;5036984;28;20361;-74
2023/05/12 07:02:12;;;;;;;;;;;359.00;2048.00;;;;;;5037137;28;20380;-75
2023/05/12 07:04:37;;;;;;;;;;;359.00;2022.40;;;;;;5037156;28;20428;-75
2023/05/12 07:07:03;;;;;;;;;;;359.00;1996.80;;;;;;5036916;28;20003;-80
2023/05/12 07:09:28;;;;;;;;;;;359.00;1996.80;;;;;;5037111;28;20349;-74
2023/05/12 07:11:54;;;;;;;;;;;359.00;1996.80;;;;;;5036792;28;19911;-75
2023/05/12 07:14:20;;;;;;;;;;;359.00;1996.80;;;;;;5037041;28;19996;-75
2023/05/12 07:16:45;;;;;;;;;;;359.00;1996.80;;;;;;5036986;28;20365;-72
2023/05/12 07:19:11;;;;;;;;;;;359.00;2022.40;;;;;;5036737;28;19928;-73
2023/05/12 07:21:36;;;;;;;;;;;359.20;2022.40;;;;;;5036795;28;19909;-75
2023/05/12 07:24:02;;;;;;;;;;;359.10;1971.20;;;;;;5023359;28;19968;-78
2023/05/12 07:26:28;;;;;;;;;;;359.20;1996.80;;;;;;5025269;28;20012;-73
2023/05/12 07:28:54;;;;;;;;;;;359.20;1971.20;;;;;;5016868;28;19952;-74
2023/05/12 07:31:19;;;;;;;;;;;359.30;1996.80;;;;;;5049102;28;20399;-73
2023/05/12 07:33:45;;;;;;;;;;;359.20;1920.00;;;;;;5035124;28;19911;-74
2023/05/12 07:36:10;;;;;;;;;;;359.20;1920.00;;;;;;5024539;28;19909;-74
2023/05/12 07:38:36;;;;;;;;;;;359.20;1971.20;;;;;;5022227;28;19971;-74
2023/05/12 07:41:02;;;;;;;;;;;359.20;1996.80;;;;;;5036520;28;19973;-74
2023/05/12 07:43:28;;;;;;;;;;;359.20;1971.20;;;;;;5036375;28;19911;-73
2023/05/12 07:45:54;;;;;;;;;;;359.20;1945.60;;;;;;5036298;28;19905;-79
2023/05/12 07:48:20;;;;;;;;;;;359.20;1971.20;;;;;;5036329;28;19908;-74
2023/05/12 07:50:46;;;;;;;;;;;359.30;2022.40;;;;;;5036144;28;20277;-77
2023/05/12 07:53:11;;;;;;;;;;;384.00;2022.40;;;;;;5035168;28;20004;-75
2023/05/12 07:55:37;;;;;;;;;;;384.00;2048.00;;;;;;5035779;28;20369;-77
2023/05/12 07:58:02;;;;;;;;;;;359.30;2022.40;;;;;;5022725;28;19910;-75
2023/05/12 08:00:29;;;;;;;;;;;359.20;1971.20;;;;;;5031166;28;19928;-75
2023/05/12 08:02:55;;;;;;;;;;;359.10;1996.80;;;;;;5016044;28;19909;-74
2023/05/12 08:05:20;;;;;;;;;;;359.10;2048.00;;;;;;5016201;28;20261;-75
2023/05/12 08:07:46;;;;;;;;;;;359.00;2124.80;;;;;;5032249;28;19917;-76
2023/05/12 08:10:12;;;;;;;;;;;358.90;2150.40;;;;;;5024741;28;20032;-78
2023/05/12 08:12:40;;;;;;;;;;;359.30;2252.80;;;;;;5020923;28;20408;-75
2023/05/12 08:15:07;;;;;;;;;;;358.90;2329.60;;;;;;5035941;28;19912;-75
2023/05/12 08:17:32;;;;;;;;;;;359.00;2329.60;;;;;;5022696;28;19962;-79
2023/05/12 08:19:58;;;;;;;;;;;358.80;2329.60;;;;;;5020962;28;20396;-74
2023/05/12 08:22:23;;;;;;;;;;;358.80;2329.60;;;;;;5034397;28;20007;-74
2023/05/12 08:24:49;;;;;;;;;;;358.60;2329.60;;;;;;5023109;28;19932;-75
2023/05/12 08:27:15;;;;;;;;;;;358.50;2329.60;;;;;;5039430;28;19913;-74
2023/05/12 08:29:40;;;;;;;;;;;358.50;2329.60;;;;;;5038731;28;20379;-74
2023/05/12 08:32:06;;;;;;;;;;;358.40;2329.60;;;;;;5035614;28;19909;-72
2023/05/12 08:34:31;;;;;;;;;;;333.70;2329.60;;;;;;5032762;28;19905;-73
2023/05/12 08:36:57;;;;;;;;;;;333.50;2329.60;;;;;;5025096;28;20346;-73
2023/05/12 08:39:22;;;;;;;;;;;333.30;2329.60;;;;;;5021039;28;19916;-74
2023/05/12 08:41:54;;;;;;;;;;;333.30;2329.60;;;;;;5023372;28;19995;-75
2023/05/12 08:44:21;;;;;;;;;;;333.30;2329.60;;;;;;5030553;28;20332;-75
2023/05/12 08:46:47;;;;;;;;;;;333.20;2329.60;;;;;;5026336;28;19909;-76
2023/05/12 08:49:16;;;;;;;;;;;333.20;2329.60;;;;;;5016268;28;19984;-75
2023/05/12 08:51:45;;;;;;;;;;;333.20;2329.60;;;;;;5015457;28;19905;-79
2023/05/12 08:54:13;;;;;;;;;;;333.10;2329.60;;;;;;5028455;28;19983;-77
2023/05/12 08:56:39;;;;;;;;;;;333.10;2329.60;;;;;;5058595;28;19928;-78
2023/05/12 08:59:07;;;;;;;;;;;333.20;2329.60;;;;;;5030481;28;19905;-76
2023/05/12 09:01:35;;;;;;;;;;;333.00;2329.60;;;;;;5034108;28;19988;-76
2023/05/12 09:04:03;;;;;;;;;;;333.00;2329.60;;;;;;5033806;28;19909;-76
2023/05/12 09:06:28;;;;;;;;;;;332.90;2329.60;;;;;;5034902;28;19913;-75
2023/05/12 09:08:54;;;;;;;;;;;332.90;2329.60;;;;;;5034727;28;19959;-77
2023/05/12 09:11:20;;;;;;;;;;;332.80;2329.60;;;;;;5015301;28;19909;-75
2023/05/12 09:13:52;;;;;;;;;;;308.10;2304.00;;;;;;5027554;28;19960;-74
2023/05/12 09:16:23;;;;;;;;;;;308.10;2304.00;;;;;;5015081;28;20043;-81
2023/05/12 09:18:55;;;;;;;;;;;308.00;2304.00;;;;;;5017223;28;19956;-76
2023/05/12 09:21:21;;;;;;;;;;;308.00;2304.00;;;;;;5024493;28;20342;-75
2023/05/12 09:23:57;;;;;;;;;;;308.10;2304.00;;;;;;5021553;28;19909;-75
2023/05/12 09:26:23;;;;;;;;;;;308.10;2304.00;;;;;;5034327;28;19921;-75
2023/05/12 09:28:49;;;;;;;;;;;332.90;2329.60;;;;;;5034674;28;19958;-75
2023/05/12 09:31:15;;;;;;;;;;;332.90;2329.60;;;;;;5019045;28;19909;-76
2023/05/12 09:33:41;;;;;;;;;;;333.00;2329.60;;;;;;5055504;28;19905;-74
2023/05/12 09:36:06;;;;;;;;;;;333.00;2329.60;;;;;;5020711;28;20331;-73
2023/05/12 09:38:32;;;;;;;;;;;333.10;2329.60;;;;;;5034284;28;19996;-73
2023/05/12 09:40:57;;;;;;;;;;;333.20;2329.60;;;;;;5034318;28;20345;-74
2023/05/12 09:43:23;;;;;;;;;;;333.20;2329.60;;;;;;5034325;28;19912;-74
2023/05/12 09:45:49;;;;;;;;;;;333.20;2329.60;;;;;;5033870;28;19959;-74
2023/05/12 09:48:15;;;;;;;;;;;333.10;2329.60;;;;;;5034327;28;19915;-73
2023/05/12 09:50:44;;;;;;;;;;;333.00;2329.60;;;;;;5030300;28;19990;-73
2023/05/12 09:53:10;;;;;;;;;;;333.00;2329.60;;;;;;5024913;28;20000;-75
2023/05/12 09:55:36;;;;;;;;;;;333.00;2329.60;;;;;;5022568;28;20012;-75
2023/05/12 09:58:07;;;;;;;;;;;333.10;2329.60;;;;;;5028056;28;19909;-75
2023/05/12 10:00:33;;;;;;;;;;;333.00;2329.60;;;;;;5033146;28;19905;-76
2023/05/12 10:02:59;;;;;;;;;;;333.00;2329.60;;;;;;5032018;28;19912;-77
2023/05/12 10:05:25;;;;;;;;;;;333.10;2329.60;;;;;;5021964;28;19912;-74
2023/05/12 10:07:53;;;;;;;;;;;333.00;2329.60;;;;;;5027882;28;19913;-75
2023/05/12 10:10:22;;;;;;;;;;;333.10;2329.60;;;;;;5024184;28;19905;-75
2023/05/12 10:12:48;;;;;;;;;;;333.20;2329.60;;;;;;5023448;28;19909;-75
2023/05/12 10:15:16;;;;;;;;;;;333.30;2329.60;;;;;;5032846;28;19987;-74
2023/05/12 10:17:42;;;;;;;;;;;333.40;2329.60;;;;;;5061156;28;20533;-75
2023/05/12 10:20:09;;;;;;;;;;;333.40;2329.60;;;;;;5028730;28;19905;-75
2023/05/12 10:22:36;;;;;;;;;;;333.50;2329.60;;;;;;5028851;28;19956;-73
2023/05/12 10:25:03;;;;;;;;;;;333.60;2329.60;;;;;;5028908;28;19909;-75
2023/05/12 10:27:31;;;;;;;;;;;333.70;2329.60;;;;;;5027187;28;19917;-75
2023/05/12 10:29:57;;;;;;;;;;;333.70;2329.60;;;;;;5026736;28;19955;-76
2023/05/12 10:32:23;;;;;;;;;;;333.70;2329.60;;;;;;5024095;28;19909;-75
2023/05/12 10:34:48;;;;;;;;;;;358.40;2329.60;;;;;;5029285;28;19912;-76
2023/05/12 10:37:14;;;;;;;;;;;358.40;2329.60;;;;;;5028761;28;20357;-73
2023/05/12 10:39:46;;;;;;;;;;;358.50;2329.60;;;;;;5021769;28;19905;-73
2023/05/12 10:42:15;;;;;;;;;;;358.50;2329.60;;;;;;5029539;28;20341;-73
2023/05/12 10:44:48;;;;;;;;;;;358.50;2329.60;;;;;;5025967;28;20328;-73
2023/05/12 10:47:14;;;;;;;;;;;358.50;2329.60;;;;;;5031203;28;19913;-74
2023/05/12 10:49:41;;;;;;;;;;;333.70;2329.60;;;;;;5026748;28;19912;-73
2023/05/12 10:52:06;;;;;;;;;;;358.50;2329.60;;;;;;5027892;28;20304;-73
2023/05/12 10:54:43;;;;;;;;;;;358.50;2329.60;;;;;;5033030;28;19928;-73
2023/05/12 10:57:12;;;;;;;;;;;358.70;2329.60;;;;;;5046105;28;20281;-73
2023/05/12 10:59:58;;;;;;;;;;;358.70;2329.60;;;;;;5031412;28;19950;-72
2023/05/12 11:02:31;;;;;;;;;;;358.80;2329.60;;;;;;5029642;28;19912;-72
2023/05/12 11:04:58;;;;;;;;;;;358.90;2329.60;;;;;;5026943;28;19909;-73
2023/05/12 11:07:28;;;;;;;;;;;359.00;2329.60;;;;;;5029445;28;19959;-73
2023/05/12 11:09:54;;;;;;;;;;;359.20;2329.60;;;;;;5032266;28;19988;-73
2023/05/12 11:12:20;;;;;;;;;;;384.00;2329.60;;;;;;5025778;28;19905;-75
2023/05/12 11:14:46;;;;;;;;;;;384.20;2329.60;;;;;;5025725;28;20560;-74
2023/05/12 11:17:12;;;;;;;;;;;384.30;2329.60;;;;;;5027761;28;19905;-73
2023/05/12 11:19:39;;;;;;;;;;;384.30;2329.60;;;;;;5027956;28;19912;-73
2023/05/12 11:22:06;;;;;;;;;;;384.30;2329.60;;;;;;5027244;28;19916;-72
2023/05/12 11:24:32;;;;;;;;;;;384.40;2329.60;;;;;;5032098;28;19959;-73
2023/05/12 11:26:57;;;;;;;;;;;384.50;2329.60;;;;;;5029538;28;19913;-76
2023/05/12 11:29:23;;;;;;;;;;;384.60;2329.60;;;;;;5032029;28;19959;-73
2023/05/12 11:31:49;;;;;;;;;;;384.70;2329.60;;;;;;5036044;28;20422;-72
2023/05/12 11:34:15;;;;;;;;;;;384.70;2329.60;;;;;;5035905;28;19952;-72
2023/05/12 11:36:41;;;;;;;;;;;384.80;2329.60;;;;;;5029432;28;19959;-72
2023/05/12 11:39:17;;;;;;;;;;;409.70;2355.20;;;;;;5029509;28;19979;-74
2023/05/12 11:41:43;;;;;;;;;;;410.00;2355.20;;;;;;5035812;28;19954;-74
2023/05/12 11:44:16;;;;;;;;;;;410.30;2355.20;;;;;;5032166;28;19905;-72
2023/05/12 11:46:52;;;;;;;;;;;435.20;2278.40;;;;;;5029967;28;19962;-73
2023/05/12 11:49:18;;;;;;;;;;;435.40;2252.80;;;;;;5028177;28;19952;-72
2023/05/12 11:51:43;;;;;;;;;;;435.50;2304.00;;;;;;5037670;28;19905;-72
2023/05/12 11:54:09;;;;;;;;;;;435.60;2252.80;;;;;;5027686;28;20302;-72
2023/05/12 11:56:35;;;;;;;;;;;435.60;2201.60;;;;;;5035354;28;20000;-72
2023/05/12 11:59:01;;;;;;;;;;;435.60;2252.80;;;;;;5028792;28;20405;-72
2023/05/12 12:01:26;;;;;;;;;;;435.70;2201.60;;;;;;5033036;28;19955;-72
2023/05/12 12:03:53;;;;;;;;;;;436.10;2355.20;;;;;;5027850;28;19905;-73
2023/05/12 12:06:19;;;;;;;;;;;461.10;2150.40;;;;;;5026507;28;19934;-72
2023/05/12 12:08:51;;;;;;;;;;;461.20;2176.00;;;;;;5032548;28;19905;-72
2023/05/12 12:11:17;;;;;;;;;;;461.20;2099.20;;;;;;5028357;28;19913;-72
2023/05/12 12:13:55;;;;;;;;;;;460.80;1945.60;;;;;;5024452;28;20412;-72
2023/05/12 12:16:24;;;;;;;;;;;435.90;2022.40;;;;;;5035010;28;19905;-72
2023/05/12 12:18:50;;;;;;;;;;;435.60;2099.20;;;;;;5026703;28;19905;-71
2023/05/12 12:21:15;;;;;;;;;;;435.50;2176.00;;;;;;5025142;28;20281;-71
2023/05/12 12:23:41;;;;;;;;;;;435.30;2124.80;;;;;;5030905;28;19916;-72
2023/05/12 12:26:06;;;;;;;;;;;435.20;2150.40;;;;;;5023010;28;19916;-72
2023/05/12 12:28:32;;;;;;;;;;;410.40;2150.40;;;;;;5029142;28;19916;-72
2023/05/12 12:30:58;;;;;;;;;;;410.30;2176.00;;;;;;5027484;28;20329;-72
2023/05/12 12:33:24;;;;;;;;;;;410.10;2048.00;;;;;;5029204;28;20346;-72
2023/05/12 12:35:49;;;;;;;;;;;410.10;2150.40;;;;;;5029542;28;19928;-72
2023/05/12 12:38:15;;;;;;;;;;;410.10;2099.20;;;;;;5028990;28;19983;-71
2023/05/12 12:40:41;;;;;;;;;;;410.20;2073.60;;;;;;5028045;28;19940;-73
2023/05/12 12:43:07;;;;;;;;;;;410.00;2022.40;;;;;;5023691;28;19963;-71
2023/05/12 12:45:33;;;;;;;;;;;410.20;2048.00;;;;;;5023928;28;20285;-72
2023/05/12 12:47:58;;;;;;;;;;;410.00;2022.40;;;;;;5025191;28;19917;-71
2023/05/12 12:50:24;;;;;;;;;;;410.00;2022.40;;;;;;5027763;28;19905;-72
2023/05/12 12:52:49;;;;;;;;;;;410.00;2048.00;;;;;;5022902;28;20388;-73
2023/05/12 12:55:15;;;;;;;;;;;410.00;2048.00;;;;;;5030991;28;20325;-73
2023/05/12 12:57:41;;;;;;;;;;;410.10;2048.00;;;;;;5026474;28;19905;-72
2023/05/12 13:00:07;;;;;;;;;;;410.20;2073.60;;;;;;5021730;28;20016;-72
2023/05/12 13:02:33;;;;;;;;;;;410.20;2048.00;;;;;;5030173;28;19905;-72
2023/05/12 13:05:02;;;;;;;;;;;410.20;1996.80;;;;;;5029104;28;19913;-72
2023/05/12 13:07:28;;;;;;;;;;;410.20;1945.60;;;;;;5024629;28;19913;-71
2023/05/12 13:09:54;;;;;;;;;;;410.40;1971.20;;;;;;5034149;28;19905;-72
2023/05/12 13:12:19;;;;;;;;;;;435.20;1971.20;;;;;;5027723;28;19911;-74
2023/05/12 13:14:45;;;;;;;;;;;410.50;1920.00;;;;;;5031310;28;19905;-75
2023/05/12 13:17:11;;;;;;;;;;;410.30;1971.20;;;;;;5028927;28;20352;-73
2023/05/12 13:19:36;;;;;;;;;;;410.40;2022.40;;;;;;5025935;28;19929;-75
2023/05/12 13:22:02;;;;;;;;;;;410.50;2048.00;;;;;;5033706;28;19997;-74
2023/05/12 13:24:28;;;;;;;;;;;410.50;2022.40;;;;;;5027167;28;20320;-74
2023/05/12 13:26:54;;;;;;;;;;;410.50;2022.40;;;;;;5026626;28;19961;-73
2023/05/12 13:29:20;;;;;;;;;;;435.40;1971.20;;;;;;5027530;28;19913;-73
2023/05/12 13:31:45;;;;;;;;;;;435.90;1971.20;;;;;;5023530;28;19913;-72
2023/05/12 13:34:12;;;;;;;;;;;435.70;1971.20;;;;;;5031605;28;19913;-74
2023/05/12 13:36:37;;;;;;;;;;;435.40;1920.00;;;;;;5020912;28;19997;-73